This is the latest recevied weather packets stored in our database for station/object IZ3VCM. If no packets are shown the sender has not sent any weather packets the latest 10 day(s).
| Time | Temp. | Humidity | Pressure | Rain* | Wind** | Luminosity | Snow |
|---|---|---|---|---|---|---|---|
| 1778003103 | 16.11° C | 81% | 1011.9 hPa | 0 mm | - | - | - |
| 1778002206 | 17.78° C | 79% | 1011.7 hPa | 0 mm | - | - | - |
| 1778001303 | 18.33° C | 77% | 1011.6 hPa | 0 mm | - | - | - |
| 1778000405 | 18.89° C | 75% | 1011.5 hPa | 0 mm | - | - | - |
| 1777999504 | 19.44° C | 74% | 1011.4 hPa | 0 mm | - | - | - |
| 1777998606 | 20° C | 73% | 1011.6 hPa | 0 mm | - | - | - |
| 1777997703 | 20.56° C | 74% | 1011.7 hPa | 0 mm | - | - | - |
| 1777996806 | 20.56° C | 73% | 1011.8 hPa | 0 mm | - | - | - |
| 1777995903 | 20° C | 76% | 1011.9 hPa | 0 mm | - | - | - |
| 1777995005 | 18.89° C | 76% | 1011.9 hPa | 0 mm | - | - | - |
| 1777994103 | 21.67° C | 71% | 1012 hPa | 0 mm | - | - | - |
| 1777993205 | 20.56° C | 75% | 1011.8 hPa | 0 mm | - | - | - |
| 1777992304 | 18.89° C | 77% | 1012 hPa | 0 mm | - | - | - |
| 1777991406 | 20° C | 75% | 1011.9 hPa | 0 mm | - | - | - |
| 1777990504 | 21.11° C | 73% | 1012 hPa | 0 mm | - | - | - |
| 1777989605 | 20° C | 75% | 1012.1 hPa | 0 mm | - | - | - |
| 1777988703 | 20.56° C | 76% | 1012.4 hPa | 0 mm | - | - | - |
| 1777987805 | 18.89° C | 77% | 1012.6 hPa | 0 mm | - | - | - |
| 1777986903 | 18.89° C | 78% | 1012.5 hPa | 0 mm | - | - | - |
| 1777986006 | 18.33° C | 79% | 1012.8 hPa | 0 mm | - | - | - |
| 1777985103 | 17.78° C | 81% | 1012.9 hPa | 0 mm | - | - | - |
| 1777984205 | 16.67° C | 83% | 1013 hPa | 0 mm | - | - | - |
| 1777983303 | 16.67° C | 82% | 1013.1 hPa | 0 mm | - | - | - |
| 1777982405 | 17.22° C | 82% | 1013.1 hPa | 0 mm | - | - | - |
| 1777981503 | 17.22° C | 80% | 1013.2 hPa | 0 mm | - | - | - |
* Rain latest hour (hover to see other rain measurements)
** Current wind speed in m/s (hover to see current wind gust speed)